Terminal Aerodrome Forecast
Issued by NWS

Home | Current Version | Previous Version | Text Only | Print | Product List | Glossary On
Versions: 1 2 3 4 5 6 7 8 9 10 11 12
809
FTUS42 TJSJ 141747
TAFISX
TAF
TISX 141747Z 1418/1518 06011KT P6SM VCSH SCT025 SCT040 SCT060
     FM142300 04006KT P6SM FEW020 SCT050 SCT090
     FM151400 09015KT P6SM SCT025 SCT040 SCT080=

USA.gov is the U.S. government's official web portal to all federal, state and local government web resources and services.